sensor_id;sensor_type;location;lat;lon;timestamp;P1;durP1;ratioP1;P2;durP2;ratioP2
55527;SDS011;52818;43.308;21.916;2024-02-26T00:00:55;7.50;;;4.80;;
55527;SDS011;52818;43.308;21.916;2024-02-26T00:02:56;7.70;;;5.30;;
55527;SDS011;52818;43.308;21.916;2024-02-26T00:04:55;10.50;;;6.20;;
55527;SDS011;52818;43.308;21.916;2024-02-26T00:06:56;9.30;;;7.60;;
55527;SDS011;52818;43.308;21.916;2024-02-26T00:08:56;8.00;;;5.60;;
55527;SDS011;52818;43.308;21.916;2024-02-26T00:10:56;9.80;;;5.80;;
55527;SDS011;52818;43.308;21.916;2024-02-26T00:12:56;7.10;;;4.90;;
55527;SDS011;52818;43.308;21.916;2024-02-26T00:14:56;6.30;;;4.60;;
55527;SDS011;52818;43.308;21.916;2024-02-26T00:16:56;6.50;;;4.20;;
55527;SDS011;52818;43.308;21.916;2024-02-26T00:18:56;6.90;;;4.10;;
55527;SDS011;52818;43.308;21.916;2024-02-26T00:20:56;6.70;;;4.20;;
55527;SDS011;52818;43.308;21.916;2024-02-26T00:22:56;6.80;;;4.10;;
55527;SDS011;52818;43.308;21.916;2024-02-26T00:24:56;8.00;;;4.40;;
55527;SDS011;52818;43.308;21.916;2024-02-26T00:26:57;7.50;;;4.60;;
55527;SDS011;52818;43.308;21.916;2024-02-26T00:28:57;7.70;;;5.20;;
55527;SDS011;52818;43.308;21.916;2024-02-26T00:30:57;7.00;;;4.90;;
55527;SDS011;52818;43.308;21.916;2024-02-26T00:32:57;12.20;;;8.60;;
55527;SDS011;52818;43.308;21.916;2024-02-26T00:34:57;18.30;;;11.20;;
55527;SDS011;52818;43.308;21.916;2024-02-26T00:36:57;16.70;;;10.60;;
55527;SDS011;52818;43.308;21.916;2024-02-26T00:38:57;16.80;;;10.40;;
55527;SDS011;52818;43.308;21.916;2024-02-26T00:40:57;13.80;;;9.60;;
55527;SDS011;52818;43.308;21.916;2024-02-26T00:42:57;14.80;;;;;
55527;SDS011;52818;43.308;21.916;2024-02-26T00:44:57;13.40;;;9.50;;
55527;SDS011;52818;43.308;21.916;2024-02-26T00:46:58;13.20;;;8.50;;
55527;SDS011;52818;43.308;21.916;2024-02-26T00:48:58;14.80;;;8.90;;
55527;SDS011;52818;43.308;21.916;2024-02-26T00:50:58;12.90;;;;;
55527;SDS011;52818;43.308;21.916;2024-02-26T00:52:58;14.50;;;9.30;;
55527;SDS011;52818;43.308;21.916;2024-02-26T00:54:58;14.30;;;10.20;;
55527;SDS011;52818;43.308;21.916;2024-02-26T00:56:58;14.00;;;9.60;;
55527;SDS011;52818;43.308;21.916;2024-02-26T00:58:58;17.30;;;10.90;;
55527;SDS011;52818;43.308;21.916;2024-02-26T01:00:58;18.70;;;11.70;;
55527;SDS011;52818;43.308;21.916;2024-02-26T01:02:58;18.50;;;12.10;;
55527;SDS011;52818;43.308;21.916;2024-02-26T01:04:58;17.60;;;;;
55527;SDS011;52818;43.308;21.916;2024-02-26T01:06:59;19.10;;;12.40;;
55527;SDS011;52818;43.308;21.916;2024-02-26T01:08:59;20.20;;;13.00;;
55527;SDS011;52818;43.308;21.916;2024-02-26T01:10:59;;;;13.10;;
55527;SDS011;52818;43.308;21.916;2024-02-26T01:12:59;19.50;;;12.60;;
55527;SDS011;52818;43.308;21.916;2024-02-26T01:14:59;18.60;;;12.30;;
55527;SDS011;52818;43.308;21.916;2024-02-26T01:16:59;18.80;;;12.50;;
55527;SDS011;52818;43.308;21.916;2024-02-26T01:18:59;18.40;;;;;
55527;SDS011;52818;43.308;21.916;2024-02-26T01:20:59;20.00;;;12.80;;
55527;SDS011;52818;43.308;21.916;2024-02-26T01:22:59;18.10;;;11.60;;
55527;SDS011;52818;43.308;21.916;2024-02-26T01:24:59;17.30;;;11.10;;
55527;SDS011;52818;43.308;21.916;2024-02-26T01:27:00;17.80;;;10.30;;
55527;SDS011;52818;43.308;21.916;2024-02-26T01:29:00;14.70;;;9.90;;
55527;SDS011;52818;43.308;21.916;2024-02-26T01:31:00;15.60;;;10.00;;
55527;SDS011;52818;43.308;21.916;2024-02-26T01:33:00;15.50;;;9.80;;
55527;SDS011;52818;43.308;21.916;2024-02-26T01:35:00;16.30;;;9.70;;
55527;SDS011;52818;43.308;21.916;2024-02-26T01:37:00;15.50;;;;;
55527;SDS011;52818;43.308;21.916;2024-02-26T01:39:00;15.10;;;9.50;;
55527;SDS011;52818;43.308;21.916;2024-02-26T01:41:00;14.10;;;8.70;;
55527;SDS011;52818;43.308;21.916;2024-02-26T01:43:01;14.40;;;8.30;;
55527;SDS011;52818;43.308;21.916;2024-02-26T01:45:01;12.40;;;8.10;;
55527;SDS011;52818;43.308;21.916;2024-02-26T01:47:01;13.30;;;8.20;;
55527;SDS011;52818;43.308;21.916;2024-02-26T01:49:01;13.00;;;8.10;;
55527;SDS011;52818;43.308;21.916;2024-02-26T01:51:01;14.00;;;8.80;;
55527;SDS011;52818;43.308;21.916;2024-02-26T01:53:01;13.30;;;8.20;;
55527;SDS011;52818;43.308;21.916;2024-02-26T01:55:01;;;;8.30;;
55527;SDS011;52818;43.308;21.916;2024-02-26T01:57:01;12.60;;;8.20;;
55527;SDS011;52818;43.308;21.916;2024-02-26T01:59:01;11.80;;;7.80;;
55527;SDS011;52818;43.308;21.916;2024-02-26T02:03:01;11.40;;;7.20;;
55527;SDS011;52818;43.308;21.916;2024-02-26T02:05:01;11.20;;;7.60;;
55527;SDS011;52818;43.308;21.916;2024-02-26T02:07:01;12.60;;;;;
55527;SDS011;52818;43.308;21.916;2024-02-26T02:09:02;12.70;;;8.20;;
55527;SDS011;52818;43.308;21.916;2024-02-26T02:11:02;12.30;;;7.90;;
55527;SDS011;52818;43.308;21.916;2024-02-26T02:13:02;13.20;;;8.10;;
55527;SDS011;52818;43.308;21.916;2024-02-26T02:15:02;13.40;;;8.40;;
55527;SDS011;52818;43.308;21.916;2024-02-26T02:17:02;12.00;;;8.10;;
55527;SDS011;52818;43.308;21.916;2024-02-26T02:19:02;11.50;;;7.70;;
55527;SDS011;52818;43.308;21.916;2024-02-26T02:21:02;11.00;;;8.10;;
55527;SDS011;52818;43.308;21.916;2024-02-26T02:23:02;12.10;;;7.50;;
55527;SDS011;52818;43.308;21.916;2024-02-26T02:25:02;11.10;;;6.50;;
55527;SDS011;52818;43.308;21.916;2024-02-26T02:27:02;11.70;;;6.70;;
55527;SDS011;52818;43.308;21.916;2024-02-26T02:29:02;10.70;;;;;
55527;SDS011;52818;43.308;21.916;2024-02-26T02:31:02;;;;5.80;;
55527;SDS011;52818;43.308;21.916;2024-02-26T02:33:03;10.20;;;6.70;;
55527;SDS011;52818;43.308;21.916;2024-02-26T02:35:03;9.00;;;6.60;;
55527;SDS011;52818;43.308;21.916;2024-02-26T02:37:03;11.90;;;7.40;;
55527;SDS011;52818;43.308;21.916;2024-02-26T02:39:03;11.10;;;7.20;;
55527;SDS011;52818;43.308;21.916;2024-02-26T02:41:03;11.70;;;7.10;;
55527;SDS011;52818;43.308;21.916;2024-02-26T02:43:03;13.50;;;7.20;;
55527;SDS011;52818;43.308;21.916;2024-02-26T02:45:03;10.50;;;7.10;;
55527;SDS011;52818;43.308;21.916;2024-02-26T02:47:03;8.40;;;6.40;;
55527;SDS011;52818;43.308;21.916;2024-02-26T02:49:33;10.00;;;5.80;;
55527;SDS011;52818;43.308;21.916;2024-02-26T02:51:33;10.10;;;5.60;;
55527;SDS011;52818;43.308;21.916;2024-02-26T02:53:34;7.90;;;4.80;;
55527;SDS011;52818;43.308;21.916;2024-02-26T02:55:34;7.50;;;4.60;;
55527;SDS011;52818;43.308;21.916;2024-02-26T02:57:34;7.00;;;;;
55527;SDS011;52818;43.308;21.916;2024-02-26T02:59:34;6.10;;;4.40;;
55527;SDS011;52818;43.308;21.916;2024-02-26T03:01:34;6.80;;;4.60;;
55527;SDS011;52818;43.308;21.916;2024-02-26T03:03:34;6.50;;;4.50;;
55527;SDS011;52818;43.308;21.916;2024-02-26T03:05:34;8.20;;;4.80;;
55527;SDS011;52818;43.308;21.916;2024-02-26T03:07:34;7.00;;;5.00;;
55527;SDS011;52818;43.308;21.916;2024-02-26T03:09:35;7.90;;;4.30;;
55527;SDS011;52818;43.308;21.916;2024-02-26T03:11:35;7.30;;;4.50;;
55527;SDS011;52818;43.308;21.916;2024-02-26T03:13:35;5.30;;;4.10;;
55527;SDS011;52818;43.308;21.916;2024-02-26T03:15:35;6.10;;;4.30;;
55527;SDS011;52818;43.308;21.916;2024-02-26T03:17:35;8.40;;;4.20;;
55527;SDS011;52818;43.308;21.916;2024-02-26T03:19:35;7.00;;;4.30;;
55527;SDS011;52818;43.308;21.916;2024-02-26T03:21:35;7.90;;;5.20;;
55527;SDS011;52818;43.308;21.916;2024-02-26T03:23:35;8.40;;;5.10;;
55527;SDS011;52818;43.308;21.916;2024-02-26T03:25:36;7.70;;;4.80;;
55527;SDS011;52818;43.308;21.916;2024-02-26T03:27:36;7.50;;;5.00;;
55527;SDS011;52818;43.308;21.916;2024-02-26T03:29:36;7.20;;;5.30;;
55527;SDS011;52818;43.308;21.916;2024-02-26T03:31:36;6.80;;;5.10;;
55527;SDS011;52818;43.308;21.916;2024-02-26T03:33:36;10.20;;;;;
55527;SDS011;52818;43.308;21.916;2024-02-26T03:35:36;7.90;;;5.20;;
55527;SDS011;52818;43.308;21.916;2024-02-26T03:37:36;11.10;;;5.50;;
55527;SDS011;52818;43.308;21.916;2024-02-26T03:39:36;10.90;;;5.40;;
55527;SDS011;52818;43.308;21.916;2024-02-26T03:41:36;7.30;;;4.70;;
55527;SDS011;52818;43.308;21.916;2024-02-26T03:43:36;7.40;;;4.80;;
55527;SDS011;52818;43.308;21.916;2024-02-26T03:45:36;8.30;;;;;
55527;SDS011;52818;43.308;21.916;2024-02-26T03:47:37;6.10;;;4.60;;
55527;SDS011;52818;43.308;21.916;2024-02-26T03:49:37;7.00;;;4.30;;
55527;SDS011;52818;43.308;21.916;2024-02-26T03:51:37;7.20;;;4.80;;
55527;SDS011;52818;43.308;21.916;2024-02-26T03:53:37;6.50;;;4.70;;
55527;SDS011;52818;43.308;21.916;2024-02-26T03:55:37;7.50;;;4.90;;
55527;SDS011;52818;43.308;21.916;2024-02-26T03:57:37;;;;5.20;;
55527;SDS011;52818;43.308;21.916;2024-02-26T03:59:37;;;;4.70;;
55527;SDS011;52818;43.308;21.916;2024-02-26T04:01:37;6.00;;;4.50;;
55527;SDS011;52818;43.308;21.916;2024-02-26T04:03:37;9.20;;;4.90;;
55527;SDS011;52818;43.308;21.916;2024-02-26T04:05:38;6.90;;;;;
55527;SDS011;52818;43.308;21.916;2024-02-26T04:07:38;9.50;;;6.20;;
55527;SDS011;52818;43.308;21.916;2024-02-26T04:09:38;10.70;;;6.70;;
55527;SDS011;52818;43.308;21.916;2024-02-26T04:11:38;17.20;;;10.50;;
55527;SDS011;52818;43.308;21.916;2024-02-26T04:13:38;29.30;;;16.80;;
55527;SDS011;52818;43.308;21.916;2024-02-26T04:15:38;29.00;;;17.30;;
55527;SDS011;52818;43.308;21.916;2024-02-26T04:17:39;27.40;;;15.30;;
55527;SDS011;52818;43.308;21.916;2024-02-26T04:19:38;26.60;;;15.60;;
55527;SDS011;52818;43.308;21.916;2024-02-26T04:21:40;24.60;;;14.90;;
55527;SDS011;52818;43.308;21.916;2024-02-26T04:23:39;21.20;;;12.90;;
55527;SDS011;52818;43.308;21.916;2024-02-26T04:25:39;21.70;;;12.70;;
55527;SDS011;52818;43.308;21.916;2024-02-26T04:27:39;17.30;;;10.40;;
55527;SDS011;52818;43.308;21.916;2024-02-26T04:29:39;16.80;;;;;
55527;SDS011;52818;43.308;21.916;2024-02-26T04:31:39;12.80;;;8.00;;
55527;SDS011;52818;43.308;21.916;2024-02-26T04:33:39;14.20;;;8.10;;
55527;SDS011;52818;43.308;21.916;2024-02-26T04:35:39;10.50;;;7.30;;
55527;SDS011;52818;43.308;21.916;2024-02-26T04:37:39;12.00;;;7.40;;
55527;SDS011;52818;43.308;21.916;2024-02-26T04:39:39;12.30;;;7.80;;
55527;SDS011;52818;43.308;21.916;2024-02-26T04:41:40;10.20;;;6.20;;
55527;SDS011;52818;43.308;21.916;2024-02-26T04:43:40;9.40;;;6.30;;
55527;SDS011;52818;43.308;21.916;2024-02-26T04:45:40;10.10;;;5.90;;
55527;SDS011;52818;43.308;21.916;2024-02-26T04:47:40;;;;6.30;;
55527;SDS011;52818;43.308;21.916;2024-02-26T04:49:40;10.20;;;7.20;;
55527;SDS011;52818;43.308;21.916;2024-02-26T04:51:40;15.20;;;8.50;;
55527;SDS011;52818;43.308;21.916;2024-02-26T04:53:40;13.50;;;9.00;;
55527;SDS011;52818;43.308;21.916;2024-02-26T04:55:40;11.70;;;7.90;;
55527;SDS011;52818;43.308;21.916;2024-02-26T04:57:40;12.70;;;8.50;;
55527;SDS011;52818;43.308;21.916;2024-02-26T04:59:41;15.10;;;8.70;;
55527;SDS011;52818;43.308;21.916;2024-02-26T05:01:41;13.90;;;8.80;;
55527;SDS011;52818;43.308;21.916;2024-02-26T05:03:41;13.60;;;9.40;;
55527;SDS011;52818;43.308;21.916;2024-02-26T05:05:41;12.60;;;7.70;;
55527;SDS011;52818;43.308;21.916;2024-02-26T05:07:41;11.70;;;7.50;;
55527;SDS011;52818;43.308;21.916;2024-02-26T05:09:41;11.20;;;7.40;;
55527;SDS011;52818;43.308;21.916;2024-02-26T05:11:41;9.20;;;6.50;;
55527;SDS011;52818;43.308;21.916;2024-02-26T05:13:41;11.50;;;7.30;;
55527;SDS011;52818;43.308;21.916;2024-02-26T05:15:41;13.60;;;9.20;;
55527;SDS011;52818;43.308;21.916;2024-02-26T05:17:42;11.50;;;8.10;;
55527;SDS011;52818;43.308;21.916;2024-02-26T05:19:42;10.80;;;7.40;;
55527;SDS011;52818;43.308;21.916;2024-02-26T05:21:42;9.70;;;6.60;;
55527;SDS011;52818;43.308;21.916;2024-02-26T05:23:42;13.90;;;8.40;;
55527;SDS011;52818;43.308;21.916;2024-02-26T05:25:42;12.30;;;7.40;;
55527;SDS011;52818;43.308;21.916;2024-02-26T05:27:42;9.60;;;6.90;;
55527;SDS011;52818;43.308;21.916;2024-02-26T05:29:42;9.80;;;7.00;;
55527;SDS011;52818;43.308;21.916;2024-02-26T05:31:42;12.90;;;8.30;;
55527;SDS011;52818;43.308;21.916;2024-02-26T05:33:42;9.70;;;6.90;;
55527;SDS011;52818;43.308;21.916;2024-02-26T05:35:42;12.60;;;7.40;;
55527;SDS011;52818;43.308;21.916;2024-02-26T05:37:42;12.50;;;8.20;;
55527;SDS011;52818;43.308;21.916;2024-02-26T05:39:43;12.70;;;7.60;;
55527;SDS011;52818;43.308;21.916;2024-02-26T05:41:43;10.90;;;7.50;;
55527;SDS011;52818;43.308;21.916;2024-02-26T05:43:43;11.10;;;7.40;;
55527;SDS011;52818;43.308;21.916;2024-02-26T05:45:43;10.50;;;;;
55527;SDS011;52818;43.308;21.916;2024-02-26T05:47:43;14.50;;;8.10;;
55527;SDS011;52818;43.308;21.916;2024-02-26T05:49:43;14.70;;;8.70;;
55527;SDS011;52818;43.308;21.916;2024-02-26T05:51:43;13.50;;;;;
55527;SDS011;52818;43.308;21.916;2024-02-26T05:53:44;10.50;;;7.40;;
55527;SDS011;52818;43.308;21.916;2024-02-26T05:55:43;9.10;;;6.70;;
55527;SDS011;52818;43.308;21.916;2024-02-26T05:57:43;10.50;;;6.30;;
55527;SDS011;52818;43.308;21.916;2024-02-26T05:59:43;10.00;;;6.50;;
55527;SDS011;52818;43.308;21.916;2024-02-26T06:01:44;9.80;;;6.10;;
55527;SDS011;52818;43.308;21.916;2024-02-26T06:03:44;10.70;;;6.30;;
55527;SDS011;52818;43.308;21.916;2024-02-26T06:05:44;11.50;;;6.60;;
55527;SDS011;52818;43.308;21.916;2024-02-26T06:07:44;11.10;;;7.20;;
55527;SDS011;52818;43.308;21.916;2024-02-26T06:09:44;12.10;;;7.90;;
55527;SDS011;52818;43.308;21.916;2024-02-26T06:11:44;13.00;;;7.30;;
55527;SDS011;52818;43.308;21.916;2024-02-26T06:13:44;11.20;;;7.50;;
55527;SDS011;52818;43.308;21.916;2024-02-26T06:15:44;10.70;;;7.00;;
55527;SDS011;52818;43.308;21.916;2024-02-26T06:17:44;10.20;;;7.10;;
55527;SDS011;52818;43.308;21.916;2024-02-26T06:19:44;10.60;;;7.40;;
55527;SDS011;52818;43.308;21.916;2024-02-26T06:21:45;9.80;;;7.10;;
55527;SDS011;52818;43.308;21.916;2024-02-26T06:23:45;12.90;;;7.60;;
55527;SDS011;52818;43.308;21.916;2024-02-26T06:25:45;11.80;;;7.50;;
55527;SDS011;52818;43.308;21.916;2024-02-26T06:27:45;14.20;;;8.30;;
55527;SDS011;52818;43.308;21.916;2024-02-26T06:29:45;12.60;;;7.70;;
55527;SDS011;52818;43.308;21.916;2024-02-26T06:31:45;11.90;;;7.10;;
55527;SDS011;52818;43.308;21.916;2024-02-26T06:33:45;11.10;;;7.40;;
55527;SDS011;52818;43.308;21.916;2024-02-26T06:35:45;;;;7.60;;
55527;SDS011;52818;43.308;21.916;2024-02-26T06:37:45;13.70;;;10.60;;
55527;SDS011;52818;43.308;21.916;2024-02-26T06:39:46;15.70;;;14.00;;
55527;SDS011;52818;43.308;21.916;2024-02-26T06:41:45;18.30;;;15.60;;
55527;SDS011;52818;43.308;21.916;2024-02-26T06:43:46;14.50;;;11.30;;
55527;SDS011;52818;43.308;21.916;2024-02-26T06:45:46;13.20;;;9.50;;
55527;SDS011;52818;43.308;21.916;2024-02-26T06:47:46;11.30;;;9.10;;
55527;SDS011;52818;43.308;21.916;2024-02-26T06:49:46;12.50;;;8.40;;
55527;SDS011;52818;43.308;21.916;2024-02-26T06:51:46;12.70;;;;;
55527;SDS011;52818;43.308;21.916;2024-02-26T06:53:46;11.80;;;7.90;;
55527;SDS011;52818;43.308;21.916;2024-02-26T06:55:46;13.20;;;8.40;;
55527;SDS011;52818;43.308;21.916;2024-02-26T06:57:46;11.40;;;7.80;;
55527;SDS011;52818;43.308;21.916;2024-02-26T06:59:46;13.00;;;;;
55527;SDS011;52818;43.308;21.916;2024-02-26T07:01:46;11.50;;;7.30;;
55527;SDS011;52818;43.308;21.916;2024-02-26T07:03:46;13.50;;;7.80;;
55527;SDS011;52818;43.308;21.916;2024-02-26T07:05:47;10.90;;;7.40;;
55527;SDS011;52818;43.308;21.916;2024-02-26T07:07:47;12.50;;;8.80;;
55527;SDS011;52818;43.308;21.916;2024-02-26T07:09:47;14.70;;;8.00;;
55527;SDS011;52818;43.308;21.916;2024-02-26T07:11:47;12.30;;;8.40;;
55527;SDS011;52818;43.308;21.916;2024-02-26T07:13:47;14.70;;;;;
55527;SDS011;52818;43.308;21.916;2024-02-26T07:15:47;16.40;;;10.00;;
55527;SDS011;52818;43.308;21.916;2024-02-26T07:17:47;18.10;;;11.50;;
55527;SDS011;52818;43.308;21.916;2024-02-26T07:19:47;21.90;;;15.80;;
55527;SDS011;52818;43.308;21.916;2024-02-26T07:21:47;17.50;;;12.70;;
55527;SDS011;52818;43.308;21.916;2024-02-26T07:23:47;18.30;;;10.20;;
55527;SDS011;52818;43.308;21.916;2024-02-26T07:25:48;17.10;;;10.40;;
55527;SDS011;52818;43.308;21.916;2024-02-26T07:27:48;15.30;;;9.90;;
55527;SDS011;52818;43.308;21.916;2024-02-26T07:29:48;19.60;;;12.10;;
55527;SDS011;52818;43.308;21.916;2024-02-26T07:31:48;17.90;;;11.30;;
55527;SDS011;52818;43.308;21.916;2024-02-26T07:33:48;14.90;;;10.00;;
55527;SDS011;52818;43.308;21.916;2024-02-26T07:35:48;13.50;;;9.50;;
55527;SDS011;52818;43.308;21.916;2024-02-26T07:37:48;12.70;;;9.20;;
55527;SDS011;52818;43.308;21.916;2024-02-26T07:39:48;13.30;;;;;
55527;SDS011;52818;43.308;21.916;2024-02-26T07:41:48;17.40;;;10.30;;
55527;SDS011;52818;43.308;21.916;2024-02-26T07:43:48;19.20;;;12.10;;
55527;SDS011;52818;43.308;21.916;2024-02-26T07:45:48;17.80;;;11.40;;
55527;SDS011;52818;43.308;21.916;2024-02-26T07:47:49;17.50;;;11.00;;
55527;SDS011;52818;43.308;21.916;2024-02-26T07:49:49;15.60;;;10.30;;
55527;SDS011;52818;43.308;21.916;2024-02-26T07:51:49;16.00;;;10.00;;
55527;SDS011;52818;43.308;21.916;2024-02-26T07:54:19;16.80;;;10.30;;
55527;SDS011;52818;43.308;21.916;2024-02-26T07:56:19;13.50;;;9.40;;
55527;SDS011;52818;43.308;21.916;2024-02-26T07:58:19;14.00;;;8.30;;
55527;SDS011;52818;43.308;21.916;2024-02-26T08:00:19;15.00;;;9.10;;
55527;SDS011;52818;43.308;21.916;2024-02-26T08:02:20;13.10;;;8.10;;
55527;SDS011;52818;43.308;21.916;2024-02-26T08:04:19;10.70;;;7.50;;
55527;SDS011;52818;43.308;21.916;2024-02-26T08:06:19;12.30;;;7.10;;
55527;SDS011;52818;43.308;21.916;2024-02-26T08:08:20;15.50;;;7.50;;
55527;SDS011;52818;43.308;21.916;2024-02-26T08:10:20;10.90;;;6.20;;
55527;SDS011;52818;43.308;21.916;2024-02-26T08:12:20;12.10;;;7.00;;
55527;SDS011;52818;43.308;21.916;2024-02-26T08:14:20;11.40;;;7.30;;
55527;SDS011;52818;43.308;21.916;2024-02-26T08:16:20;13.50;;;8.40;;
55527;SDS011;52818;43.308;21.916;2024-02-26T08:18:20;40.90;;;22.50;;
55527;SDS011;52818;43.308;21.916;2024-02-26T08:20:20;28.10;;;16.40;;
55527;SDS011;52818;43.308;21.916;2024-02-26T08:22:20;26.00;;;15.70;;
55527;SDS011;52818;43.308;21.916;2024-02-26T08:24:20;27.00;;;15.10;;
55527;SDS011;52818;43.308;21.916;2024-02-26T08:26:21;22.80;;;13.70;;
55527;SDS011;52818;43.308;21.916;2024-02-26T08:28:21;20.30;;;12.00;;
55527;SDS011;52818;43.308;21.916;2024-02-26T08:30:21;21.90;;;12.80;;
55527;SDS011;52818;43.308;21.916;2024-02-26T08:32:21;19.50;;;11.20;;
55527;SDS011;52818;43.308;21.916;2024-02-26T08:34:21;16.90;;;9.80;;
55527;SDS011;52818;43.308;21.916;2024-02-26T08:36:21;15.60;;;9.30;;
55527;SDS011;52818;43.308;21.916;2024-02-26T08:38:21;14.70;;;8.70;;
55527;SDS011;52818;43.308;21.916;2024-02-26T08:40:21;12.50;;;8.20;;
55527;SDS011;52818;43.308;21.916;2024-02-26T08:42:21;13.30;;;7.60;;
55527;SDS011;52818;43.308;21.916;2024-02-26T08:44:22;10.20;;;7.40;;
55527;SDS011;52818;43.308;21.916;2024-02-26T08:46:22;12.70;;;;;
55527;SDS011;52818;43.308;21.916;2024-02-26T08:48:22;12.10;;;7.70;;
55527;SDS011;52818;43.308;21.916;2024-02-26T08:50:22;9.60;;;6.30;;
55527;SDS011;52818;43.308;21.916;2024-02-26T08:52:22;10.30;;;6.50;;
55527;SDS011;52818;43.308;21.916;2024-02-26T08:54:22;10.70;;;5.90;;
55527;SDS011;52818;43.308;21.916;2024-02-26T08:56:22;10.30;;;6.00;;
55527;SDS011;52818;43.308;21.916;2024-02-26T08:58:22;11.30;;;;;
55527;SDS011;52818;43.308;21.916;2024-02-26T09:00:22;9.50;;;6.10;;
55527;SDS011;52818;43.308;21.916;2024-02-26T09:02:23;9.80;;;6.90;;
55527;SDS011;52818;43.308;21.916;2024-02-26T09:04:23;9.30;;;6.40;;
55527;SDS011;52818;43.308;21.916;2024-02-26T09:06:23;9.90;;;6.00;;
55527;SDS011;52818;43.308;21.916;2024-02-26T09:08:23;8.60;;;5.60;;
55527;SDS011;52818;43.308;21.916;2024-02-26T09:10:23;9.30;;;6.20;;
55527;SDS011;52818;43.308;21.916;2024-02-26T09:12:23;10.10;;;;;
55527;SDS011;52818;43.308;21.916;2024-02-26T09:14:23;9.20;;;;;
55527;SDS011;52818;43.308;21.916;2024-02-26T09:16:24;8.90;;;6.10;;
55527;SDS011;52818;43.308;21.916;2024-02-26T09:18:24;10.00;;;;;
55527;SDS011;52818;43.308;21.916;2024-02-26T09:20:23;9.50;;;5.70;;
55527;SDS011;52818;43.308;21.916;2024-02-26T09:22:24;9.10;;;6.00;;
55527;SDS011;52818;43.308;21.916;2024-02-26T09:24:24;7.40;;;5.60;;
55527;SDS011;52818;43.308;21.916;2024-02-26T09:26:24;9.10;;;5.90;;
55527;SDS011;52818;43.308;21.916;2024-02-26T09:28:24;11.20;;;5.60;;
55527;SDS011;52818;43.308;21.916;2024-02-26T09:30:24;8.80;;;;;
55527;SDS011;52818;43.308;21.916;2024-02-26T09:32:24;10.70;;;;;
55527;SDS011;52818;43.308;21.916;2024-02-26T09:34:24;8.90;;;5.70;;
55527;SDS011;52818;43.308;21.916;2024-02-26T09:36:24;7.60;;;5.20;;
55527;SDS011;52818;43.308;21.916;2024-02-26T09:38:24;8.50;;;5.50;;
55527;SDS011;52818;43.308;21.916;2024-02-26T09:40:24;7.50;;;5.10;;
55527;SDS011;52818;43.308;21.916;2024-02-26T09:42:25;10.00;;;5.60;;
55527;SDS011;52818;43.308;21.916;2024-02-26T09:44:25;11.00;;;6.10;;
55527;SDS011;52818;43.308;21.916;2024-02-26T09:46:25;10.00;;;5.60;;
55527;SDS011;52818;43.308;21.916;2024-02-26T09:48:25;11.10;;;5.80;;
55527;SDS011;52818;43.308;21.916;2024-02-26T09:50:25;10.30;;;5.50;;
55527;SDS011;52818;43.308;21.916;2024-02-26T09:52:25;10.90;;;5.60;;
55527;SDS011;52818;43.308;21.916;2024-02-26T09:54:25;9.70;;;5.50;;
55527;SDS011;52818;43.308;21.916;2024-02-26T09:56:25;8.80;;;5.10;;
55527;SDS011;52818;43.308;21.916;2024-02-26T09:58:27;7.60;;;4.80;;
55527;SDS011;52818;43.308;21.916;2024-02-26T10:00:25;8.30;;;4.90;;
55527;SDS011;52818;43.308;21.916;2024-02-26T10:02:26;8.40;;;4.70;;
55527;SDS011;52818;43.308;21.916;2024-02-26T10:04:26;13.70;;;9.40;;
55527;SDS011;52818;43.308;21.916;2024-02-26T10:06:26;28.00;;;18.50;;
55527;SDS011;52818;43.308;21.916;2024-02-26T10:08:26;30.60;;;19.70;;
55527;SDS011;52818;43.308;21.916;2024-02-26T10:10:26;19.50;;;11.70;;
55527;SDS011;52818;43.308;21.916;2024-02-26T10:12:26;10.90;;;5.80;;
55527;SDS011;52818;43.308;21.916;2024-02-26T10:14:26;10.60;;;5.00;;
55527;SDS011;52818;43.308;21.916;2024-02-26T10:16:26;10.10;;;4.60;;
55527;SDS011;52818;43.308;21.916;2024-02-26T10:18:26;7.40;;;;;
55527;SDS011;52818;43.308;21.916;2024-02-26T10:20:26;6.50;;;4.10;;
55527;SDS011;52818;43.308;21.916;2024-02-26T10:22:27;7.70;;;4.20;;
55527;SDS011;52818;43.308;21.916;2024-02-26T10:24:27;10.00;;;4.50;;
55527;SDS011;52818;43.308;21.916;2024-02-26T10:26:27;6.10;;;4.30;;
55527;SDS011;52818;43.308;21.916;2024-02-26T10:28:27;6.60;;;3.80;;
55527;SDS011;52818;43.308;21.916;2024-02-26T10:30:27;7.30;;;3.90;;
55527;SDS011;52818;43.308;21.916;2024-02-26T10:32:27;7.80;;;4.50;;
55527;SDS011;52818;43.308;21.916;2024-02-26T10:34:27;6.50;;;4.10;;
55527;SDS011;52818;43.308;21.916;2024-02-26T10:36:27;7.10;;;4.20;;
55527;SDS011;52818;43.308;21.916;2024-02-26T10:38:27;6.30;;;4.10;;
55527;SDS011;52818;43.308;21.916;2024-02-26T10:40:27;7.70;;;4.50;;
55527;SDS011;52818;43.308;21.916;2024-02-26T10:42:27;7.30;;;4.20;;
55527;SDS011;52818;43.308;21.916;2024-02-26T10:44:28;9.40;;;4.10;;
55527;SDS011;52818;43.308;21.916;2024-02-26T10:46:28;7.20;;;3.90;;
55527;SDS011;52818;43.308;21.916;2024-02-26T10:48:28;7.00;;;4.10;;
55527;SDS011;52818;43.308;21.916;2024-02-26T10:50:28;8.20;;;3.80;;
55527;SDS011;52818;43.308;21.916;2024-02-26T10:52:28;7.00;;;3.60;;
55527;SDS011;52818;43.308;21.916;2024-02-26T10:54:29;7.80;;;3.80;;
55527;SDS011;52818;43.308;21.916;2024-02-26T10:56:28;57.30;;;27.00;;
55527;SDS011;52818;43.308;21.916;2024-02-26T10:58:28;109.10;;;47.50;;
55527;SDS011;52818;43.308;21.916;2024-02-26T11:00:28;44.30;;;21.00;;
55527;SDS011;52818;43.308;21.916;2024-02-26T11:02:28;14.40;;;7.20;;
55527;SDS011;52818;43.308;21.916;2024-02-26T11:04:28;8.60;;;5.10;;
55527;SDS011;52818;43.308;21.916;2024-02-26T11:06:29;7.10;;;4.10;;
55527;SDS011;52818;43.308;21.916;2024-02-26T11:08:29;4.80;;;3.60;;
55527;SDS011;52818;43.308;21.916;2024-02-26T11:10:29;6.40;;;3.70;;
55527;SDS011;52818;43.308;21.916;2024-02-26T11:12:29;8.70;;;4.00;;
55527;SDS011;52818;43.308;21.916;2024-02-26T11:14:29;7.80;;;4.30;;
55527;SDS011;52818;43.308;21.916;2024-02-26T11:16:29;8.10;;;4.20;;
55527;SDS011;52818;43.308;21.916;2024-02-26T11:18:59;5.70;;;3.20;;
55527;SDS011;52818;43.308;21.916;2024-02-26T11:20:59;6.30;;;3.80;;
55527;SDS011;52818;43.308;21.916;2024-02-26T11:22:59;6.00;;;3.40;;
55527;SDS011;52818;43.308;21.916;2024-02-26T11:24:59;5.00;;;3.60;;
55527;SDS011;52818;43.308;21.916;2024-02-26T11:27:01;7.30;;;3.70;;
55527;SDS011;52818;43.308;21.916;2024-02-26T11:29:00;5.80;;;3.90;;
55527;SDS011;52818;43.308;21.916;2024-02-26T11:31:00;10.40;;;6.70;;
55527;SDS011;52818;43.308;21.916;2024-02-26T11:33:00;10.30;;;5.30;;
55527;SDS011;52818;43.308;21.916;2024-02-26T11:35:00;8.40;;;4.50;;
55527;SDS011;52818;43.308;21.916;2024-02-26T11:37:08;7.60;;;5.10;;
55527;SDS011;52818;43.308;21.916;2024-02-26T11:39:00;6.10;;;4.40;;
55527;SDS011;52818;43.308;21.916;2024-02-26T11:41:00;6.50;;;4.10;;
55527;SDS011;52818;43.308;21.916;2024-02-26T11:43:01;7.30;;;4.20;;
55527;SDS011;52818;43.308;21.916;2024-02-26T11:45:01;7.90;;;4.50;;
55527;SDS011;52818;43.308;21.916;2024-02-26T11:47:09;6.20;;;4.30;;
55527;SDS011;52818;43.308;21.916;2024-02-26T11:49:01;7.00;;;;;
55527;SDS011;52818;43.308;21.916;2024-02-26T11:51:01;7.40;;;;;